createdAt,value
2022-11-16T00:01:28.515Z,98580.11
2022-11-16T00:04:00.091Z,98578.73
2022-11-16T00:06:29.599Z,98580.99
2022-11-16T00:09:19.580Z,98575.65
2022-11-16T00:11:51.560Z,98578.70
2022-11-16T00:14:21.150Z,98581.02
2022-11-16T00:16:49.637Z,98580.02
2022-11-16T00:19:18.216Z,98579.89
2022-11-16T00:21:46.976Z,98577.15
2022-11-16T00:24:17.327Z,98572.11
2022-11-16T00:26:45.863Z,98572.79
2022-11-16T00:29:22.996Z,98570.90
2022-11-16T00:31:52.600Z,98567.48
2022-11-16T00:34:23.746Z,98565.64
2022-11-16T00:36:52.124Z,98565.30
2022-11-16T00:39:21.220Z,98562.48
2022-11-16T00:41:50.114Z,98561.95
2022-11-16T00:44:19.100Z,98559.65
2022-11-16T00:46:47.375Z,98562.52
2022-11-16T00:49:15.857Z,98556.75
2022-11-16T00:51:44.030Z,98555.56
2022-11-16T00:54:12.614Z,98558.91
2022-11-16T00:56:41.202Z,98553.59
2022-11-16T00:59:09.331Z,98555.30
2022-11-16T01:01:37.739Z,98559.06
2022-11-16T01:04:06.026Z,98557.98
2022-11-16T01:06:34.201Z,98563.20
2022-11-16T01:09:02.474Z,98558.52
2022-11-16T01:11:49.286Z,98557.46
2022-11-16T01:14:17.379Z,98552.77
2022-11-16T01:16:45.636Z,98548.73
2022-11-16T01:19:13.807Z,98547.83
2022-11-16T01:21:42.286Z,98546.13
2022-11-16T01:24:10.469Z,98547.73
2022-11-16T01:26:38.639Z,98544.98
2022-11-16T01:29:07.228Z,98541.02
2022-11-16T01:31:40.819Z,98535.26
2022-11-16T01:34:09.653Z,98528.06
2022-11-16T01:36:37.886Z,98523.55
2022-11-16T01:39:06.875Z,98516.80
2022-11-16T01:41:45.202Z,98515.27
2022-11-16T01:44:31.410Z,98516.84
2022-11-16T01:47:11.947Z,98521.31
2022-11-16T01:49:44.831Z,98524.55
2022-11-16T01:52:20.685Z,98528.22
2022-11-16T01:54:52.752Z,98529.79
2022-11-16T01:57:23.712Z,98528.58
2022-11-16T02:00:06.650Z,98526.31
2022-11-16T02:02:48.707Z,98522.48
2022-11-16T02:05:43.300Z,98519.16
2022-11-16T02:08:41.574Z,98516.77
2022-11-16T02:11:33.095Z,98507.95
2022-11-16T02:14:10.894Z,98501.58
2022-11-16T02:16:57.601Z,98496.91
2022-11-16T02:19:51.682Z,98499.45
2022-11-16T02:22:37.266Z,98496.65
2022-11-16T02:25:15.657Z,98492.34
2022-11-16T02:27:49.901Z,98489.38
2022-11-16T02:30:20.524Z,98490.26
2022-11-16T02:32:56.787Z,98487.10
2022-11-16T02:35:31.720Z,98486.52
2022-11-16T02:38:07.675Z,98478.52
2022-11-16T02:40:38.614Z,98468.98
2022-11-16T02:43:11.088Z,98463.95
2022-11-16T02:45:45.711Z,98455.42
2022-11-16T02:48:21.775Z,98451.80
2022-11-16T02:50:55.171Z,98450.90
2022-11-16T02:53:25.803Z,98456.11
2022-11-16T02:55:54.484Z,98452.83
2022-11-16T02:58:25.626Z,98455.80
2022-11-16T03:01:15.955Z,98454.25
2022-11-16T03:03:52.899Z,98452.55
2022-11-16T03:06:30.494Z,98452.35
2022-11-16T03:09:20.683Z,98449.21
2022-11-16T03:11:59.621Z,98452.70
2022-11-16T03:14:44.474Z,98450.44
2022-11-16T03:17:21.661Z,98452.92
2022-11-16T03:20:18.406Z,98455.72
2022-11-16T03:22:54.975Z,98455.70
2022-11-16T03:25:26.014Z,98453.42
2022-11-16T03:28:23.473Z,98451.70
2022-11-16T03:31:01.480Z,98451.72
2022-11-16T03:33:54.231Z,98444.63
2022-11-16T03:36:39.809Z,98439.10
2022-11-16T03:39:16.592Z,98434.71
2022-11-16T03:41:48.448Z,98438.16
2022-11-16T03:44:19.488Z,98434.38
2022-11-16T03:46:48.460Z,98428.66
2022-11-16T03:49:21.648Z,98429.41
2022-11-16T03:51:51.383Z,98428.41
2022-11-16T03:54:20.065Z,98419.22
2022-11-16T03:56:48.241Z,98416.23
2022-11-16T03:59:16.311Z,98412.45
2022-11-16T04:01:46.532Z,98403.28
2022-11-16T04:04:35.185Z,98399.14
2022-11-16T04:07:23.672Z,98399.86
2022-11-16T04:10:10.446Z,98404.26
2022-11-16T04:13:07.088Z,98404.11
2022-11-16T04:15:55.637Z,98403.60
2022-11-16T04:18:42.859Z,98402.23
2022-11-16T04:21:43.902Z,98396.69
2022-11-16T04:24:26.311Z,98392.73
2022-11-16T04:27:18.345Z,98393.98
2022-11-16T04:29:47.638Z,98388.81
2022-11-16T04:32:35.378Z,98390.88
2022-11-16T04:35:22.188Z,98393.84
2022-11-16T04:37:52.761Z,98393.35
2022-11-16T04:40:29.734Z,98394.27
2022-11-16T04:43:00.945Z,98392.03
2022-11-16T04:45:51.438Z,98390.84
2022-11-16T04:48:21.990Z,98390.84
2022-11-16T04:50:52.803Z,98389.61
2022-11-16T04:53:22.820Z,98388.60
2022-11-16T04:56:00.727Z,98385.86
2022-11-16T04:58:30.700Z,98386.05
2022-11-16T05:01:00.317Z,98390.07
2022-11-16T05:03:29.441Z,98390.61
2022-11-16T05:05:57.615Z,98388.05
2022-11-16T05:08:26.511Z,98391.14
2022-11-16T05:10:55.501Z,98391.14
2022-11-16T05:13:23.672Z,98387.35
2022-11-16T05:15:52.255Z,98384.95
2022-11-16T05:18:20.531Z,98382.20
2022-11-16T05:21:00.689Z,98384.80
2022-11-16T05:23:49.750Z,98383.30
2022-11-16T05:26:19.972Z,98380.72
2022-11-16T05:28:49.176Z,98376.71
2022-11-16T05:31:17.350Z,98376.39
2022-11-16T05:33:45.927Z,98376.58
2022-11-16T05:36:14.822Z,98375.19
2022-11-16T05:38:43.095Z,98374.67
2022-11-16T05:41:12.497Z,98375.91
2022-11-16T05:43:40.671Z,98381.30
2022-11-16T05:46:14.474Z,98380.05
2022-11-16T05:48:42.955Z,98379.05
2022-11-16T05:51:11.132Z,98378.54
2022-11-16T05:53:39.718Z,98377.34
2022-11-16T05:56:08.578Z,98375.08
2022-11-16T05:58:39.030Z,98373.72
2022-11-16T06:01:07.512Z,98367.46
2022-11-16T06:03:36.573Z,98365.50
2022-11-16T06:06:05.695Z,98366.92
2022-11-16T06:08:34.327Z,98368.38
2022-11-16T06:11:06.964Z,98373.25
2022-11-16T06:13:36.877Z,98371.70
2022-11-16T06:16:05.998Z,98370.66
2022-11-16T06:18:44.694Z,98369.63
2022-11-16T06:21:16.656Z,98365.24
2022-11-16T06:23:45.854Z,98367.69
2022-11-16T06:26:14.029Z,98369.08
2022-11-16T06:28:42.720Z,98365.26
2022-11-16T06:31:10.889Z,98365.63
2022-11-16T06:33:42.240Z,98369.65
2022-11-16T06:36:17.886Z,98370.34
2022-11-16T06:38:46.569Z,98360.23
2022-11-16T06:41:15.052Z,98355.91
2022-11-16T06:43:46.297Z,98354.20
2022-11-16T06:46:15.187Z,98350.38
2022-11-16T06:48:43.667Z,98352.11
2022-11-16T06:51:13.901Z,98351.60
2022-11-16T06:53:42.284Z,98352.13
2022-11-16T06:56:13.803Z,98345.30
2022-11-16T06:58:45.397Z,98345.30
2022-11-16T07:01:14.544Z,98346.88
2022-11-16T07:03:44.283Z,98350.55
2022-11-16T07:06:14.199Z,98353.50
2022-11-16T07:08:44.113Z,98351.45
2022-11-16T07:11:12.795Z,98351.27
2022-11-16T07:13:40.975Z,98349.51
2022-11-16T07:16:12.328Z,98347.61
2022-11-16T07:18:44.587Z,98346.40
2022-11-16T07:21:15.123Z,98343.27
2022-11-16T07:23:43.699Z,98336.73
2022-11-16T07:26:12.798Z,98336.38
2022-11-16T07:28:49.060Z,98333.61
2022-11-16T07:31:20.259Z,98333.56
2022-11-16T07:33:48.580Z,98336.52
2022-11-16T07:36:35.696Z,98330.83
2022-11-16T07:39:04.382Z,98327.02
2022-11-16T07:41:32.863Z,98323.75
2022-11-16T07:44:12.813Z,98320.81
2022-11-16T07:46:47.441Z,98320.64
2022-11-16T07:49:18.590Z,98315.94
2022-11-16T07:51:54.146Z,98314.70
2022-11-16T07:54:40.841Z,98313.88
2022-11-16T07:57:09.931Z,98314.39
2022-11-16T07:59:41.486Z,98316.30
2022-11-16T08:02:11.309Z,98312.68
2022-11-16T08:04:40.905Z,98311.63
2022-11-16T08:07:10.031Z,98311.23
2022-11-16T08:09:43.885Z,98311.93
2022-11-16T08:12:14.435Z,98306.38
2022-11-16T08:14:42.614Z,98310.89
2022-11-16T08:17:10.783Z,98313.33
2022-11-16T08:19:40.492Z,98311.90
2022-11-16T08:22:09.738Z,98313.91
2022-11-16T08:24:40.014Z,98310.44
2022-11-16T08:27:09.008Z,98309.23
2022-11-16T08:29:37.694Z,98314.63
2022-11-16T08:32:07.407Z,98313.41
2022-11-16T08:34:35.886Z,98314.11
2022-11-16T08:37:04.879Z,98318.60
2022-11-16T08:39:40.422Z,98319.07
2022-11-16T08:42:09.007Z,98319.43
2022-11-16T08:44:37.520Z,98316.50
2022-11-16T08:47:09.244Z,98316.98
2022-11-16T08:49:49.331Z,98316.13
2022-11-16T08:52:18.589Z,98316.46
2022-11-16T08:54:47.486Z,98319.55
2022-11-16T08:57:16.890Z,98322.44
2022-11-16T08:59:45.882Z,98326.08
2022-11-16T09:02:14.957Z,98325.21
2022-11-16T09:04:43.990Z,98319.30
2022-11-16T09:07:12.091Z,98318.08
2022-11-16T09:09:40.216Z,98315.48
2022-11-16T09:12:08.398Z,98310.92
2022-11-16T09:14:36.463Z,98309.66
2022-11-16T09:17:04.840Z,98306.86
2022-11-16T09:19:33.011Z,98308.08
2022-11-16T09:22:01.291Z,98305.48
2022-11-16T09:24:29.359Z,98298.54
2022-11-16T09:27:01.427Z,98294.04
2022-11-16T09:29:29.525Z,98295.58
2022-11-16T09:31:58.590Z,98291.72
2022-11-16T09:34:26.662Z,98286.54
2022-11-16T09:36:55.041Z,98285.00
2022-11-16T09:39:31.707Z,98282.40
2022-11-16T09:42:19.957Z,98279.45
2022-11-16T09:44:54.275Z,98276.86
2022-11-16T09:47:26.647Z,98275.74
2022-11-16T09:50:02.890Z,98276.79
2022-11-16T09:52:32.313Z,98276.45
2022-11-16T09:55:05.915Z,98275.23
2022-11-16T09:57:37.057Z,98277.83
2022-11-16T10:00:14.351Z,98274.02
2022-11-16T10:02:48.048Z,98273.51
2022-11-16T10:05:26.257Z,98265.14
2022-11-16T10:08:04.572Z,98266.89
2022-11-16T10:10:33.459Z,98258.23
2022-11-16T10:13:15.009Z,98251.83
2022-11-16T10:15:49.159Z,98249.91
2022-11-16T10:18:34.331Z,98247.98
2022-11-16T10:21:06.193Z,98247.23
2022-11-16T10:23:42.352Z,98243.23
2022-11-16T10:26:19.741Z,98246.58
2022-11-16T10:29:01.025Z,98243.98
2022-11-16T10:31:51.739Z,98240.15
2022-11-16T10:34:25.634Z,98243.30
2022-11-16T10:36:59.644Z,98242.61
2022-11-16T10:39:27.820Z,98243.95
2022-11-16T10:41:58.774Z,98241.70
2022-11-16T10:44:42.171Z,98241.86
2022-11-16T10:47:22.856Z,98244.27
2022-11-16T10:49:57.376Z,98242.70
2022-11-16T10:52:25.858Z,98236.98
2022-11-16T10:54:54.337Z,98236.92
2022-11-16T10:57:24.051Z,98230.98
2022-11-16T10:59:55.932Z,98227.89
2022-11-16T11:02:36.166Z,98226.19
2022-11-16T11:05:20.622Z,98222.20
2022-11-16T11:08:04.476Z,98219.27
2022-11-16T11:10:37.045Z,98218.23
2022-11-16T11:13:12.788Z,98215.95
2022-11-16T11:15:42.808Z,98217.37
2022-11-16T11:18:23.370Z,98216.71
2022-11-16T11:21:12.538Z,98218.48
2022-11-16T11:23:52.553Z,98212.42
2022-11-16T11:26:37.268Z,98214.30
2022-11-16T11:29:24.851Z,98213.73
2022-11-16T11:31:56.231Z,98213.64
2022-11-16T11:34:30.645Z,98210.55
2022-11-16T11:37:02.303Z,98209.71
2022-11-16T11:39:35.952Z,98208.16
2022-11-16T11:42:22.100Z,98213.75
2022-11-16T11:44:57.443Z,98216.17
2022-11-16T11:48:00.256Z,98214.91
2022-11-16T11:50:53.079Z,98210.97
2022-11-16T11:53:46.339Z,98212.55
2022-11-16T11:56:15.172Z,98209.27
2022-11-16T11:58:44.278Z,98208.27
2022-11-16T12:01:12.292Z,98205.14
2022-11-16T12:04:25.627Z,98201.29
2022-11-16T12:07:00.955Z,98197.31
2022-11-16T12:09:42.965Z,98197.86
2022-11-16T12:12:23.530Z,98199.10
2022-11-16T12:15:16.175Z,98198.44
2022-11-16T12:17:58.278Z,98192.35
2022-11-16T12:20:45.088Z,98192.45
2022-11-16T12:23:22.168Z,98188.32
2022-11-16T12:25:53.823Z,98189.05
2022-11-16T12:28:37.255Z,98186.83
2022-11-16T12:31:27.550Z,98183.37
2022-11-16T12:33:58.691Z,98183.39
2022-11-16T12:36:40.690Z,98185.27
2022-11-16T12:39:18.491Z,98183.02
2022-11-16T12:42:15.640Z,98188.63
2022-11-16T12:45:18.740Z,98190.05
2022-11-16T12:47:59.304Z,98185.95
2022-11-16T12:50:39.349Z,98181.60
2022-11-16T12:53:36.629Z,98180.36
2022-11-16T12:56:05.085Z,98182.82
2022-11-16T12:58:48.314Z,98180.06
2022-11-16T13:01:29.223Z,98180.92
2022-11-16T13:04:26.850Z,98179.92
2022-11-16T13:07:10.406Z,98178.36
2022-11-16T13:09:45.212Z,98179.36
2022-11-16T13:12:17.483Z,98183.23
2022-11-16T13:14:48.932Z,98182.57
2022-11-16T13:17:28.516Z,98182.95
2022-11-16T13:20:27.572Z,98181.08
2022-11-16T13:23:22.061Z,98176.58
2022-11-16T13:26:10.574Z,98171.85
2022-11-16T13:28:55.376Z,98177.07
2022-11-16T13:31:39.935Z,98177.25
2022-11-16T13:34:19.473Z,98177.07
2022-11-16T13:36:47.956Z,98173.64
2022-11-16T13:39:40.296Z,98174.67
2022-11-16T13:42:13.281Z,98172.87
2022-11-16T13:44:41.421Z,98173.75
2022-11-16T13:47:24.888Z,98170.48
2022-11-16T13:49:59.748Z,98172.22
2022-11-16T13:55:38.866Z,98171.33
2022-11-16T13:58:10.115Z,98169.91
2022-11-16T14:00:40.546Z,98169.04
2022-11-16T14:03:18.030Z,98165.77
2022-11-16T14:05:48.559Z,98167.85
2022-11-16T14:08:19.604Z,98165.59
2022-11-16T14:10:50.539Z,98166.66
2022-11-16T14:13:44.414Z,98163.70
2022-11-16T14:16:15.353Z,98164.52
2022-11-16T14:18:45.370Z,98157.27
2022-11-16T14:21:19.587Z,98160.05
2022-11-16T14:24:22.984Z,98155.58
2022-11-16T14:27:08.053Z,98156.17
2022-11-16T14:30:02.956Z,98159.47
2022-11-16T14:32:43.929Z,98154.40
2022-11-16T14:35:38.316Z,98152.71
2022-11-16T14:38:35.471Z,98151.21
2022-11-16T14:41:06.716Z,98156.79
2022-11-16T14:43:41.771Z,98159.23
2022-11-16T14:46:26.786Z,98158.17
2022-11-16T14:48:57.552Z,98157.08
2022-11-16T14:51:41.496Z,98159.33
2022-11-16T14:54:27.794Z,98157.12
2022-11-16T14:56:57.939Z,98154.21
2022-11-16T14:59:27.263Z,98143.66
2022-11-16T15:01:55.899Z,98136.42
2022-11-16T15:04:27.620Z,98135.05
2022-11-16T15:07:01.728Z,98139.87
2022-11-16T15:09:29.841Z,98137.48
2022-11-16T15:12:18.393Z,98135.96
2022-11-16T15:14:55.067Z,98138.40
2022-11-16T15:17:31.850Z,98140.67
2022-11-16T15:20:04.213Z,98139.83
2022-11-16T15:22:40.373Z,98146.03
2022-11-16T15:25:25.245Z,98141.85
2022-11-16T15:27:54.845Z,98139.66
2022-11-16T15:30:28.963Z,98140.40
2022-11-16T15:32:57.747Z,98146.83
2022-11-16T15:35:31.865Z,98144.29
2022-11-16T15:38:05.156Z,98147.07
2022-11-16T15:40:34.628Z,98144.45
2022-11-16T15:43:05.393Z,98143.39
2022-11-16T15:45:34.663Z,98151.56
2022-11-16T15:48:05.023Z,98152.45
2022-11-16T15:50:33.496Z,98156.97
2022-11-16T15:53:01.774Z,98158.55
2022-11-16T15:55:32.649Z,98157.16
2022-11-16T15:58:06.516Z,98158.34
2022-11-16T16:00:37.559Z,98165.64
2022-11-16T16:03:17.715Z,98162.23
2022-11-16T16:05:46.298Z,98162.25
2022-11-16T16:08:35.769Z,98158.78
2022-11-16T16:11:15.721Z,98160.36
2022-11-16T16:14:04.680Z,98160.35
2022-11-16T16:16:36.642Z,98159.65
2022-11-16T16:19:30.418Z,98160.71
2022-11-16T16:21:59.717Z,98161.27
2022-11-16T16:24:46.118Z,98157.65
2022-11-16T16:27:29.548Z,98159.23
2022-11-16T16:30:02.719Z,98163.42
2022-11-16T16:32:37.040Z,98161.38
2022-11-16T16:35:08.358Z,98160.67
2022-11-16T16:37:36.989Z,98160.53
2022-11-16T16:40:06.098Z,98154.00
2022-11-16T16:42:34.155Z,98153.85
2022-11-16T16:45:02.711Z,98152.31
2022-11-16T16:47:31.432Z,98154.44
2022-11-16T16:49:59.495Z,98151.66
2022-11-16T16:52:27.979Z,98155.97
2022-11-16T16:54:56.154Z,98155.80
2022-11-16T16:57:24.225Z,98153.05
2022-11-16T16:59:52.396Z,98153.25
2022-11-16T17:02:20.467Z,98156.02
2022-11-16T17:04:49.126Z,98153.45
2022-11-16T17:07:17.525Z,98158.13
2022-11-16T17:09:45.807Z,98156.88
2022-11-16T17:12:13.878Z,98151.54
2022-11-16T17:14:42.265Z,98154.15
2022-11-16T17:17:10.432Z,98153.80
2022-11-16T17:19:38.604Z,98148.95
2022-11-16T17:22:06.777Z,98150.17
2022-11-16T17:24:35.895Z,98152.42
2022-11-16T17:27:04.149Z,98152.92
2022-11-16T17:29:32.234Z,98153.64
2022-11-16T17:32:00.571Z,98157.29
2022-11-16T17:34:28.772Z,98157.98
2022-11-16T17:36:57.054Z,98159.23
2022-11-16T17:39:25.426Z,98158.71
2022-11-16T17:41:53.600Z,98154.06
2022-11-16T17:44:22.328Z,98155.58
2022-11-16T17:46:50.563Z,98159.39
2022-11-16T17:49:18.739Z,98156.98
2022-11-16T17:51:46.810Z,98159.42
2022-11-16T17:54:15.186Z,98163.25
2022-11-16T17:56:43.462Z,98165.18
2022-11-16T17:59:11.533Z,98168.33
2022-11-16T18:01:39.832Z,98171.63
2022-11-16T18:04:07.997Z,98169.20
2022-11-16T18:06:36.073Z,98176.30
2022-11-16T18:09:04.216Z,98176.86
2022-11-16T18:11:32.261Z,98174.79
2022-11-16T18:14:01.236Z,98175.49
2022-11-16T18:16:32.757Z,98175.34
2022-11-16T18:19:04.111Z,98176.55
2022-11-16T18:21:38.203Z,98182.77
2022-11-16T18:24:07.306Z,98183.30
2022-11-16T18:26:35.889Z,98182.61
2022-11-16T18:29:04.567Z,98185.91
2022-11-16T18:31:34.176Z,98185.22
2022-11-16T18:34:02.349Z,98183.69
2022-11-16T18:36:30.523Z,98182.49
2022-11-16T18:38:58.696Z,98183.02
2022-11-16T18:41:29.328Z,98184.41
2022-11-16T18:44:00.265Z,98185.61
2022-11-16T18:46:30.591Z,98182.16
2022-11-16T18:48:59.550Z,98183.91
2022-11-16T18:51:29.162Z,98181.83
2022-11-16T18:53:57.261Z,98181.31
2022-11-16T18:56:25.541Z,98186.67
2022-11-16T18:58:53.845Z,98185.33
2022-11-16T19:01:24.851Z,98185.66
2022-11-16T19:03:55.586Z,98187.02
2022-11-16T19:06:24.148Z,98187.05
2022-11-16T19:08:59.584Z,98184.11
2022-11-16T19:11:28.845Z,98183.08
2022-11-16T19:14:04.883Z,98179.80
2022-11-16T19:16:33.869Z,98183.45
2022-11-16T19:19:02.138Z,98179.81
2022-11-16T19:21:31.085Z,98185.02
2022-11-16T19:23:59.205Z,98185.70
2022-11-16T19:26:28.686Z,98183.45
2022-11-16T19:28:56.883Z,98183.80
2022-11-16T19:31:27.616Z,98184.85
2022-11-16T19:33:55.686Z,98181.39
2022-11-16T19:36:25.399Z,98182.60
2022-11-16T19:38:53.774Z,98183.81
2022-11-16T19:41:22.893Z,98191.25
2022-11-16T19:43:52.930Z,98188.30
2022-11-16T19:46:21.735Z,98199.02
2022-11-16T19:48:51.181Z,98202.99
2022-11-16T19:51:22.527Z,98205.92
2022-11-16T19:53:50.907Z,98206.80
2022-11-16T19:56:21.126Z,98202.66
2022-11-16T19:58:49.505Z,98197.99
2022-11-16T20:01:20.468Z,98194.20
2022-11-16T20:03:49.672Z,98186.75
2022-11-16T20:06:23.761Z,98179.32
2022-11-16T20:08:56.028Z,98167.23
2022-11-16T20:11:26.963Z,98161.55
2022-11-16T20:13:57.065Z,98166.59
2022-11-16T20:16:35.411Z,98178.34
2022-11-16T20:19:09.096Z,98184.73
2022-11-16T20:21:39.829Z,98184.91
2022-11-16T20:24:11.691Z,98185.94
2022-11-16T20:26:44.243Z,98187.83
2022-11-16T20:29:14.220Z,98187.65
2022-11-16T20:31:45.223Z,98188.36
2022-11-16T20:34:16.634Z,98188.70
2022-11-16T20:36:46.896Z,98188.88
2022-11-16T20:39:17.835Z,98189.58
2022-11-16T20:41:46.910Z,98188.35
2022-11-16T20:44:23.604Z,98187.29
2022-11-16T20:46:52.855Z,98189.20
2022-11-16T20:49:21.179Z,98187.64
2022-11-16T20:51:50.580Z,98193.34
2022-11-16T20:54:18.753Z,98196.80
2022-11-16T20:56:49.696Z,98192.14
2022-11-16T20:59:17.967Z,98193.70
2022-11-16T21:01:48.924Z,98189.90
2022-11-16T21:04:17.285Z,98194.20
2022-11-16T21:06:45.560Z,98192.30
2022-11-16T21:09:22.690Z,98196.45
2022-11-16T21:12:20.004Z,98194.37
2022-11-16T21:14:48.071Z,98196.30
2022-11-16T21:17:16.105Z,98193.54
2022-11-16T21:20:05.406Z,98188.36
2022-11-16T21:22:32.438Z,98186.64
2022-11-16T21:25:01.145Z,98185.23
2022-11-16T21:27:29.216Z,98187.99
2022-11-16T21:29:57.595Z,98189.20
2022-11-16T21:32:26.692Z,98189.55
2022-11-16T21:34:54.762Z,98187.98
2022-11-16T21:37:22.832Z,98185.59
2022-11-16T21:39:51.005Z,98184.55
2022-11-16T21:42:19.077Z,98181.27
2022-11-16T21:44:47.251Z,98183.52
2022-11-16T21:47:15.321Z,98181.09
2022-11-16T21:50:09.764Z,98179.71
2022-11-16T21:52:31.842Z,98175.91
2022-11-16T21:54:59.914Z,98169.17
2022-11-16T21:57:28.107Z,98165.02
2022-11-16T21:59:56.143Z,98163.48
2022-11-16T22:02:24.150Z,98165.39
2022-11-16T22:05:10.939Z,98169.00
2022-11-16T22:07:41.364Z,98164.36
2022-11-16T22:10:11.586Z,98163.49
2022-11-16T22:15:43.066Z,98160.04
2022-11-16T22:18:11.646Z,98159.89
2022-11-16T22:20:40.331Z,98163.01
2022-11-16T22:23:08.424Z,98165.76
2022-11-16T22:25:37.195Z,98165.42
2022-11-16T22:28:20.346Z,98163.86
2022-11-16T22:30:51.911Z,98163.88
2022-11-16T22:33:20.758Z,98161.63
2022-11-16T22:35:48.944Z,98168.20
2022-11-16T22:38:17.107Z,98176.30
2022-11-16T22:40:58.080Z,98176.32
2022-11-16T22:43:28.818Z,98179.25
2022-11-16T22:45:59.241Z,98178.56
2022-11-16T22:48:38.994Z,98177.19
2022-11-16T22:51:21.802Z,98179.59
2022-11-16T22:53:58.475Z,98181.84
2022-11-16T22:56:28.289Z,98177.87
2022-11-16T22:58:56.975Z,98174.23
2022-11-16T23:01:25.663Z,98172.70
2022-11-16T23:03:53.856Z,98166.83
2022-11-16T23:06:22.112Z,98167.70
2022-11-16T23:08:50.385Z,98166.64
2022-11-16T23:11:39.141Z,98166.48
2022-11-16T23:14:29.536Z,98163.89
2022-11-16T23:16:57.645Z,98162.50
2022-11-16T23:19:45.750Z,98161.98
2022-11-16T23:22:38.253Z,98162.85
2022-11-16T23:25:29.610Z,98161.13
2022-11-16T23:28:04.542Z,98162.69
2022-11-16T23:30:34.355Z,98161.98
2022-11-16T23:33:03.093Z,98157.69
2022-11-16T23:35:31.213Z,98160.60
2022-11-16T23:38:04.715Z,98154.23
2022-11-16T23:40:35.860Z,98151.28
2022-11-16T23:43:24.106Z,98149.39
2022-11-16T23:45:52.281Z,98146.80
2022-11-16T23:48:20.449Z,98146.11
2022-11-16T23:50:48.622Z,98147.31
2022-11-16T23:53:16.800Z,98144.55
2022-11-16T23:55:44.973Z,98148.87
2022-11-16T23:58:15.191Z,98150.59
